sensor_id;sensor_type;location;lat;lon;timestamp;pressure;altitude;pressure_sealevel;temperature;humidity
71573;BME280;59408;51.032;9.410;2023-11-18T00:02:26;99868.09;;;-3.01;100.00
71573;BME280;59408;51.032;9.410;2023-11-18T00:04:54;99871.56;;;-3.00;100.00
71573;BME280;59408;51.032;9.410;2023-11-18T00:07:21;99873.19;;;-2.99;100.00
71573;BME280;59408;51.032;9.410;2023-11-18T00:09:47;99865.66;;;-3.02;100.00
71573;BME280;59408;51.032;9.410;2023-11-18T00:12:14;99866.69;;;-3.03;100.00
71573;BME280;59408;51.032;9.410;2023-11-18T00:14:40;99869.38;;;-3.03;100.00
71573;BME280;59408;51.032;9.410;2023-11-18T00:17:07;99867.16;;;-3.06;100.00
71573;BME280;59408;51.032;9.410;2023-11-18T00:19:33;99867.38;;;-3.08;100.00
71573;BME280;59408;51.032;9.410;2023-11-18T00:22:02;99863.22;;;-3.04;100.00
71573;BME280;59408;51.032;9.410;2023-11-18T00:24:28;99856.47;;;-3.06;100.00
71573;BME280;59408;51.032;9.410;2023-11-18T00:26:55;99857.75;;;-3.09;100.00
71573;BME280;59408;51.032;9.410;2023-11-18T00:29:21;99854.50;;;-3.11;100.00
71573;BME280;59408;51.032;9.410;2023-11-18T00:31:48;99860.31;;;-3.14;100.00
71573;BME280;59408;51.032;9.410;2023-11-18T00:34:15;99859.13;;;-3.18;100.00
71573;BME280;59408;51.032;9.410;2023-11-18T00:36:41;99862.03;;;-3.19;100.00
71573;BME280;59408;51.032;9.410;2023-11-18T00:39:09;99865.16;;;-3.22;100.00
71573;BME280;59408;51.032;9.410;2023-11-18T00:41:36;99860.75;;;-3.29;100.00
71573;BME280;59408;51.032;9.410;2023-11-18T00:44:02;99857.47;;;-3.31;100.00
71573;BME280;59408;51.032;9.410;2023-11-18T00:46:29;99856.88;;;-3.33;100.00
71573;BME280;59408;51.032;9.410;2023-11-18T00:48:56;99860.38;;;-3.32;100.00
71573;BME280;59408;51.032;9.410;2023-11-18T00:51:22;99867.19;;;-3.36;100.00
71573;BME280;59408;51.032;9.410;2023-11-18T00:53:49;99884.25;;;-3.37;100.00
71573;BME280;59408;51.032;9.410;2023-11-18T00:56:17;99877.16;;;-3.43;100.00
71573;BME280;59408;51.032;9.410;2023-11-18T00:58:43;99886.56;;;-3.41;100.00
71573;BME280;59408;51.032;9.410;2023-11-18T01:01:10;99884.34;;;-3.44;100.00
71573;BME280;59408;51.032;9.410;2023-11-18T01:03:36;99881.31;;;-3.47;100.00
71573;BME280;59408;51.032;9.410;2023-11-18T01:06:03;99887.09;;;-3.50;100.00
71573;BME280;59408;51.032;9.410;2023-11-18T01:08:30;99892.00;;;-3.47;100.00
71573;BME280;59408;51.032;9.410;2023-11-18T01:10:56;99892.44;;;-3.50;100.00
71573;BME280;59408;51.032;9.410;2023-11-18T01:13:25;99897.31;;;-3.47;100.00
71573;BME280;59408;51.032;9.410;2023-11-18T01:15:51;99892.69;;;-3.40;100.00
71573;BME280;59408;51.032;9.410;2023-11-18T01:18:19;99902.78;;;-3.42;100.00
71573;BME280;59408;51.032;9.410;2023-11-18T01:20:45;99897.81;;;-3.39;100.00
71573;BME280;59408;51.032;9.410;2023-11-18T01:23:12;99901.97;;;-3.43;100.00
71573;BME280;59408;51.032;9.410;2023-11-18T01:25:39;99902.06;;;-3.49;100.00
71573;BME280;59408;51.032;9.410;2023-11-18T01:28:06;99895.75;;;-3.55;100.00
71573;BME280;59408;51.032;9.410;2023-11-18T01:30:34;99900.16;;;-3.60;100.00
71573;BME280;59408;51.032;9.410;2023-11-18T01:33:01;99899.56;;;-3.63;100.00
71573;BME280;59408;51.032;9.410;2023-11-18T01:35:28;99897.34;;;-3.66;100.00
71573;BME280;59408;51.032;9.410;2023-11-18T01:37:54;99903.72;;;-3.67;100.00
71573;BME280;59408;51.032;9.410;2023-11-18T01:40:21;99894.53;;;-3.71;100.00
71573;BME280;59408;51.032;9.410;2023-11-18T01:42:47;99903.00;;;-3.74;100.00
71573;BME280;59408;51.032;9.410;2023-11-18T01:45:14;99910.75;;;-3.72;100.00
71573;BME280;59408;51.032;9.410;2023-11-18T01:47:44;99916.34;;;-3.74;100.00
71573;BME280;59408;51.032;9.410;2023-11-18T01:50:12;99915.88;;;-3.71;100.00
71573;BME280;59408;51.032;9.410;2023-11-18T01:52:39;99911.00;;;-3.74;100.00
71573;BME280;59408;51.032;9.410;2023-11-18T01:55:08;99906.09;;;-3.77;100.00
71573;BME280;59408;51.032;9.410;2023-11-18T01:57:35;99906.75;;;-3.81;100.00
71573;BME280;59408;51.032;9.410;2023-11-18T02:00:03;99909.06;;;-3.85;100.00
71573;BME280;59408;51.032;9.410;2023-11-18T02:02:30;99916.47;;;-3.87;100.00
71573;BME280;59408;51.032;9.410;2023-11-18T02:04:58;99912.19;;;-3.88;100.00
71573;BME280;59408;51.032;9.410;2023-11-18T02:07:24;99907.88;;;-3.89;100.00
71573;BME280;59408;51.032;9.410;2023-11-18T02:09:51;99909.72;;;-3.89;100.00
71573;BME280;59408;51.032;9.410;2023-11-18T02:12:22;99903.75;;;-3.85;100.00
71573;BME280;59408;51.032;9.410;2023-11-18T02:14:50;99919.97;;;-3.86;100.00
71573;BME280;59408;51.032;9.410;2023-11-18T02:17:20;99907.66;;;-3.87;100.00
71573;BME280;59408;51.032;9.410;2023-11-18T02:19:47;99907.88;;;-3.89;100.00
71573;BME280;59408;51.032;9.410;2023-11-18T02:22:16;99916.69;;;-3.88;100.00
71573;BME280;59408;51.032;9.410;2023-11-18T02:24:42;99916.91;;;-3.90;100.00
71573;BME280;59408;51.032;9.410;2023-11-18T02:27:10;99921.00;;;-3.87;100.00
71573;BME280;59408;51.032;9.410;2023-11-18T02:29:38;99920.38;;;-3.89;100.00
71573;BME280;59408;51.032;9.410;2023-11-18T02:32:14;99931.06;;;-3.89;100.00
71573;BME280;59408;51.032;9.410;2023-11-18T02:34:48;99925.72;;;-3.89;100.00
71573;BME280;59408;51.032;9.410;2023-11-18T02:37:15;99922.50;;;-3.91;100.00
71573;BME280;59408;51.032;9.410;2023-11-18T02:39:43;99924.91;;;-3.90;100.00
71573;BME280;59408;51.032;9.410;2023-11-18T02:42:13;99919.00;;;-3.92;100.00
71573;BME280;59408;51.032;9.410;2023-11-18T02:44:40;99923.06;;;-3.89;100.00
71573;BME280;59408;51.032;9.410;2023-11-18T02:47:07;99918.53;;;-3.89;100.00
71573;BME280;59408;51.032;9.410;2023-11-18T02:49:35;99922.50;;;-3.91;100.00
71573;BME280;59408;51.032;9.410;2023-11-18T02:52:02;99922.50;;;-3.91;100.00
71573;BME280;59408;51.032;9.410;2023-11-18T02:54:29;99926.63;;;-3.95;100.00
71573;BME280;59408;51.032;9.410;2023-11-18T02:56:55;99925.41;;;-3.99;100.00
71573;BME280;59408;51.032;9.410;2023-11-18T02:59:23;99925.22;;;-3.98;100.00
71573;BME280;59408;51.032;9.410;2023-11-18T03:01:53;99916.63;;;-4.00;100.00
71573;BME280;59408;51.032;9.410;2023-11-18T03:04:20;99911.75;;;-4.03;100.00
71573;BME280;59408;51.032;9.410;2023-11-18T03:06:46;99914.19;;;-4.02;100.00
71573;BME280;59408;51.032;9.410;2023-11-18T03:09:13;99920.78;;;-4.04;100.00
71573;BME280;59408;51.032;9.410;2023-11-18T03:11:39;99913.59;;;-4.04;100.00
71573;BME280;59408;51.032;9.410;2023-11-18T03:14:06;99916.03;;;-4.02;100.00
71573;BME280;59408;51.032;9.410;2023-11-18T03:16:34;99916.47;;;-4.05;100.00
71573;BME280;59408;51.032;9.410;2023-11-18T03:19:01;99916.34;;;-4.10;100.00
71573;BME280;59408;51.032;9.410;2023-11-18T03:21:28;99910.84;;;-4.15;100.00
71573;BME280;59408;51.032;9.410;2023-11-18T03:23:54;99906.78;;;-4.18;100.00
71573;BME280;59408;51.032;9.410;2023-11-18T03:26:21;99915.81;;;-4.19;100.00
71573;BME280;59408;51.032;9.410;2023-11-18T03:28:47;99916.19;;;-4.15;100.00
71573;BME280;59408;51.032;9.410;2023-11-18T03:31:14;99907.84;;;-4.19;100.00
71573;BME280;59408;51.032;9.410;2023-11-18T03:33:42;99907.22;;;-4.21;100.00
71573;BME280;59408;51.032;9.410;2023-11-18T03:36:09;99915.56;;;-4.17;100.00
71573;BME280;59408;51.032;9.410;2023-11-18T03:38:36;99918.09;;;-4.22;100.00
71573;BME280;59408;51.032;9.410;2023-11-18T03:41:03;99907.44;;;-4.22;100.00
71573;BME280;59408;51.032;9.410;2023-11-18T03:43:29;99904.34;;;-4.19;100.00
71573;BME280;59408;51.032;9.410;2023-11-18T03:45:56;99903.28;;;-4.18;100.00
71573;BME280;59408;51.032;9.410;2023-11-18T03:48:23;99897.41;;;-4.20;100.00
71573;BME280;59408;51.032;9.410;2023-11-18T03:50:51;99902.94;;;-4.22;100.00
71573;BME280;59408;51.032;9.410;2023-11-18T03:53:18;99893.53;;;-4.24;100.00
71573;BME280;59408;51.032;9.410;2023-11-18T03:55:44;99899.06;;;-4.26;100.00
71573;BME280;59408;51.032;9.410;2023-11-18T03:58:11;99889.47;;;-4.27;100.00
71573;BME280;59408;51.032;9.410;2023-11-18T04:00:37;99893.97;;;-4.27;100.00
71573;BME280;59408;51.032;9.410;2023-11-18T04:03:04;99888.88;;;-4.29;100.00
71573;BME280;59408;51.032;9.410;2023-11-18T04:05:30;99891.56;;;-4.29;100.00
71573;BME280;59408;51.032;9.410;2023-11-18T04:08:00;99885.53;;;-4.24;100.00
71573;BME280;59408;51.032;9.410;2023-11-18T04:10:27;99882.88;;;-4.24;100.00
71573;BME280;59408;51.032;9.410;2023-11-18T04:12:54;99890.44;;;-4.21;100.00
71573;BME280;59408;51.032;9.410;2023-11-18T04:15:20;99884.66;;;-4.18;100.00
71573;BME280;59408;51.032;9.410;2023-11-18T04:17:47;99891.59;;;-4.17;100.00
71573;BME280;59408;51.032;9.410;2023-11-18T04:20:14;99891.38;;;-4.16;100.00
71573;BME280;59408;51.032;9.410;2023-11-18T04:22:40;99885.47;;;-4.18;100.00
71573;BME280;59408;51.032;9.410;2023-11-18T04:25:09;99889.97;;;-4.18;100.00
71573;BME280;59408;51.032;9.410;2023-11-18T04:27:36;99890.44;;;-4.21;100.00
71573;BME280;59408;51.032;9.410;2023-11-18T04:30:03;99889.19;;;-4.19;100.00
71573;BME280;59408;51.032;9.410;2023-11-18T04:32:30;99898.78;;;-4.18;100.00
71573;BME280;59408;51.032;9.410;2023-11-18T04:34:57;99887.69;;;-4.15;100.00
71573;BME280;59408;51.032;9.410;2023-11-18T04:37:23;99888.94;;;-4.17;100.00
71573;BME280;59408;51.032;9.410;2023-11-18T04:39:50;99881.84;;;-4.23;100.00
71573;BME280;59408;51.032;9.410;2023-11-18T04:42:18;99888.22;;;-4.24;100.00
71573;BME280;59408;51.032;9.410;2023-11-18T04:44:44;99888.44;;;-4.26;100.00
71573;BME280;59408;51.032;9.410;2023-11-18T04:47:11;99888.06;;;-4.29;100.00
71573;BME280;59408;51.032;9.410;2023-11-18T04:49:38;99882.38;;;-4.33;100.00
71573;BME280;59408;51.032;9.410;2023-11-18T04:52:05;99874.22;;;-4.38;100.00
71573;BME280;59408;51.032;9.410;2023-11-18T04:54:31;99873.84;;;-4.42;100.00
71573;BME280;59408;51.032;9.410;2023-11-18T04:56:58;99869.19;;;-4.46;100.00
71573;BME280;59408;51.032;9.410;2023-11-18T04:59:26;99873.25;;;-4.44;100.00
71573;BME280;59408;51.032;9.410;2023-11-18T05:01:52;99878.34;;;-4.42;100.00
71573;BME280;59408;51.032;9.410;2023-11-18T05:04:19;99879.38;;;-4.43;100.00
71573;BME280;59408;51.032;9.410;2023-11-18T05:06:46;99874.66;;;-4.41;100.00
71573;BME280;59408;51.032;9.410;2023-11-18T05:09:12;99872.00;;;-4.41;100.00
71573;BME280;59408;51.032;9.410;2023-11-18T05:11:39;99877.34;;;-4.41;100.00
71573;BME280;59408;51.032;9.410;2023-11-18T05:14:06;99876.72;;;-4.43;100.00
71573;BME280;59408;51.032;9.410;2023-11-18T05:16:33;99872.44;;;-4.44;100.00
71573;BME280;59408;51.032;9.410;2023-11-18T05:19:00;99862.38;;;-4.42;100.00
71573;BME280;59408;51.032;9.410;2023-11-18T05:21:27;99862.00;;;-4.46;100.00
71573;BME280;59408;51.032;9.410;2023-11-18T05:23:53;99853.88;;;-4.51;100.00
71573;BME280;59408;51.032;9.410;2023-11-18T05:26:20;99858.81;;;-4.54;100.00
71573;BME280;59408;51.032;9.410;2023-11-18T05:28:46;99853.94;;;-4.57;100.00
71573;BME280;59408;51.032;9.410;2023-11-18T05:31:13;99848.63;;;-4.57;100.00
71573;BME280;59408;51.032;9.410;2023-11-18T05:33:41;99844.56;;;-4.60;100.00
71573;BME280;59408;51.032;9.410;2023-11-18T05:36:08;99843.13;;;-4.62;100.00
71573;BME280;59408;51.032;9.410;2023-11-18T05:38:35;99839.91;;;-4.64;100.00
71573;BME280;59408;51.032;9.410;2023-11-18T05:41:02;99842.78;;;-4.66;100.00
71573;BME280;59408;51.032;9.410;2023-11-18T05:43:29;99841.88;;;-4.60;100.00
71573;BME280;59408;51.032;9.410;2023-11-18T05:45:56;99841.47;;;-4.57;100.00
71573;BME280;59408;51.032;9.410;2023-11-18T05:48:23;99840.66;;;-4.57;100.00
71573;BME280;59408;51.032;9.410;2023-11-18T05:50:51;99852.91;;;-4.56;100.00
71573;BME280;59408;51.032;9.410;2023-11-18T05:53:17;99847.75;;;-4.51;100.00
71573;BME280;59408;51.032;9.410;2023-11-18T05:55:44;99848.94;;;-4.47;100.00
71573;BME280;59408;51.032;9.410;2023-11-18T05:58:11;99849.75;;;-4.47;100.00
71573;BME280;59408;51.032;9.410;2023-11-18T06:00:37;99853.38;;;-4.41;100.00
71573;BME280;59408;51.032;9.410;2023-11-18T06:03:07;99849.75;;;-4.47;100.00
71573;BME280;59408;51.032;9.410;2023-11-18T06:05:34;99855.28;;;-4.48;100.00
71573;BME280;59408;51.032;9.410;2023-11-18T06:08:02;99847.94;;;-4.53;100.00
71573;BME280;59408;51.032;9.410;2023-11-18T06:10:29;99852.31;;;-4.58;100.00
71573;BME280;59408;51.032;9.410;2023-11-18T06:12:56;99855.88;;;-4.64;100.00
71573;BME280;59408;51.032;9.410;2023-11-18T06:15:22;99856.31;;;-4.67;100.00
71573;BME280;59408;51.032;9.410;2023-11-18T06:17:49;99847.94;;;-4.71;100.00
71573;BME280;59408;51.032;9.410;2023-11-18T06:20:15;99851.63;;;-4.72;100.00
71573;BME280;59408;51.032;9.410;2023-11-18T06:22:42;99840.41;;;-4.74;100.00
71573;BME280;59408;51.032;9.410;2023-11-18T06:25:10;99839.00;;;-4.77;100.00
71573;BME280;59408;51.032;9.410;2023-11-18T06:27:36;99843.50;;;-4.77;100.00
71573;BME280;59408;51.032;9.410;2023-11-18T06:30:03;99843.72;;;-4.79;100.00
71573;BME280;59408;51.032;9.410;2023-11-18T06:32:30;99849.84;;;-4.78;100.00
71573;BME280;59408;51.032;9.410;2023-11-18T06:34:57;99835.94;;;-4.80;100.00
71573;BME280;59408;51.032;9.410;2023-11-18T06:37:23;99832.84;;;-4.77;100.00
71573;BME280;59408;51.032;9.410;2023-11-18T06:39:50;99822.81;;;-4.75;100.00
71573;BME280;59408;51.032;9.410;2023-11-18T06:42:18;99834.28;;;-4.74;100.00
71573;BME280;59408;51.032;9.410;2023-11-18T06:44:44;99847.13;;;-4.71;100.00
71573;BME280;59408;51.032;9.410;2023-11-18T06:47:11;99846.47;;;-4.67;100.00
71573;BME280;59408;51.032;9.410;2023-11-18T06:49:38;99851.94;;;-4.62;100.00
71573;BME280;59408;51.032;9.410;2023-11-18T06:52:04;99847.94;;;-4.53;100.00
71573;BME280;59408;51.032;9.410;2023-11-18T06:54:31;99852.25;;;-4.52;100.00
71573;BME280;59408;51.032;9.410;2023-11-18T06:56:58;99865.72;;;-4.47;100.00
71573;BME280;59408;51.032;9.410;2023-11-18T06:59:25;99868.53;;;-4.42;100.00
71573;BME280;59408;51.032;9.410;2023-11-18T07:01:52;99878.28;;;-4.35;100.00
71573;BME280;59408;51.032;9.410;2023-11-18T07:04:19;99889.25;;;-4.25;100.00
71573;BME280;59408;51.032;9.410;2023-11-18T07:06:45;99884.00;;;-4.14;100.00
71573;BME280;59408;51.032;9.410;2023-11-18T07:09:12;99880.22;;;-4.06;100.00
71573;BME280;59408;51.032;9.410;2023-11-18T07:11:39;99888.28;;;-3.94;100.00
71573;BME280;59408;51.032;9.410;2023-11-18T07:14:05;99901.69;;;-3.83;100.00
71573;BME280;59408;51.032;9.410;2023-11-18T07:16:33;99899.97;;;-3.77;100.00
71573;BME280;59408;51.032;9.410;2023-11-18T07:19:00;99905.41;;;-3.72;100.00
71573;BME280;59408;51.032;9.410;2023-11-18T07:21:26;99886.69;;;-3.66;100.00
71573;BME280;59408;51.032;9.410;2023-11-18T07:23:53;99883.13;;;-3.59;100.00
71573;BME280;59408;51.032;9.410;2023-11-18T07:26:19;99900.06;;;-3.54;100.00
71573;BME280;59408;51.032;9.410;2023-11-18T07:28:46;99902.06;;;-3.49;100.00
71573;BME280;59408;51.032;9.410;2023-11-18T07:31:12;99909.63;;;-3.46;100.00
71573;BME280;59408;51.032;9.410;2023-11-18T07:33:40;99901.75;;;-3.41;100.00
71573;BME280;59408;51.032;9.410;2023-11-18T07:36:10;99908.25;;;-3.37;100.00
71573;BME280;59408;51.032;9.410;2023-11-18T07:38:36;99896.09;;;-3.33;100.00
71573;BME280;59408;51.032;9.410;2023-11-18T07:41:03;99887.75;;;-3.25;100.00
71573;BME280;59408;51.032;9.410;2023-11-18T07:43:30;99889.38;;;-3.24;100.00
71573;BME280;59408;51.032;9.410;2023-11-18T07:45:57;99888.13;;;-3.21;100.00
71573;BME280;59408;51.032;9.410;2023-11-18T07:48:24;99887.66;;;-3.18;100.00
71573;BME280;59408;51.032;9.410;2023-11-18T07:50:52;99895.22;;;-3.15;100.00
71573;BME280;59408;51.032;9.410;2023-11-18T07:53:18;99892.31;;;-3.14;100.00
71573;BME280;59408;51.032;9.410;2023-11-18T07:55:45;99895.56;;;-3.12;100.00
71573;BME280;59408;51.032;9.410;2023-11-18T07:58:14;99887.47;;;-3.05;100.00
71573;BME280;59408;51.032;9.410;2023-11-18T08:00:42;99887.25;;;-3.04;100.00
71573;BME280;59408;51.032;9.410;2023-11-18T08:03:09;99891.66;;;-2.98;100.00
71573;BME280;59408;51.032;9.410;2023-11-18T08:05:36;99888.53;;;-2.95;100.00
71573;BME280;59408;51.032;9.410;2023-11-18T08:08:05;99902.34;;;-2.86;100.00
71573;BME280;59408;51.032;9.410;2023-11-18T08:10:31;99899.78;;;-2.81;100.00
71573;BME280;59408;51.032;9.410;2023-11-18T08:12:58;99910.25;;;-2.79;100.00
71573;BME280;59408;51.032;9.410;2023-11-18T08:15:25;99919.22;;;-2.74;100.00
71573;BME280;59408;51.032;9.410;2023-11-18T08:17:51;99920.72;;;-2.66;100.00
71573;BME280;59408;51.032;9.410;2023-11-18T08:20:18;99908.16;;;-2.54;100.00
71573;BME280;59408;51.032;9.410;2023-11-18T08:22:45;99906.78;;;-2.45;100.00
71573;BME280;59408;51.032;9.410;2023-11-18T08:25:14;99903.53;;;-2.35;100.00
71573;BME280;59408;51.032;9.410;2023-11-18T08:27:40;99893.19;;;-2.20;100.00
71573;BME280;59408;51.032;9.410;2023-11-18T08:30:08;99882.47;;;-2.08;100.00
71573;BME280;59408;51.032;9.410;2023-11-18T08:32:35;99878.88;;;-2.02;100.00
71573;BME280;59408;51.032;9.410;2023-11-18T08:35:02;99875.84;;;-1.94;100.00
71573;BME280;59408;51.032;9.410;2023-11-18T08:37:28;99868.63;;;-1.94;100.00
71573;BME280;59408;51.032;9.410;2023-11-18T08:39:55;99860.84;;;-1.95;100.00
71573;BME280;59408;51.032;9.410;2023-11-18T08:42:23;99868.41;;;-1.92;100.00
71573;BME280;59408;51.032;9.410;2023-11-18T08:44:50;99852.88;;;-1.79;100.00
71573;BME280;59408;51.032;9.410;2023-11-18T08:47:16;99855.66;;;-1.73;100.00
71573;BME280;59408;51.032;9.410;2023-11-18T08:49:43;99850.16;;;-1.67;100.00
71573;BME280;59408;51.032;9.410;2023-11-18T08:52:09;99857.81;;;-1.59;100.00
71573;BME280;59408;51.032;9.410;2023-11-18T08:54:36;99855.78;;;-1.52;100.00
71573;BME280;59408;51.032;9.410;2023-11-18T08:57:04;99855.94;;;-1.30;100.00
71573;BME280;59408;51.032;9.410;2023-11-18T08:59:33;99861.94;;;-1.06;100.00
71573;BME280;59408;51.032;9.410;2023-11-18T09:01:59;99867.97;;;-0.82;100.00
71573;BME280;59408;51.032;9.410;2023-11-18T09:04:26;99872.97;;;-0.69;100.00
71573;BME280;59408;51.032;9.410;2023-11-18T09:06:53;99878.09;;;-0.68;100.00
71573;BME280;59408;51.032;9.410;2023-11-18T09:09:20;99877.53;;;-0.70;100.00
71573;BME280;59408;51.032;9.410;2023-11-18T09:11:46;99883.13;;;-0.71;100.00
71573;BME280;59408;51.032;9.410;2023-11-18T09:14:12;99884.69;;;-0.75;100.00
71573;BME280;59408;51.032;9.410;2023-11-18T09:16:40;99881.03;;;-0.69;100.00
71573;BME280;59408;51.032;9.410;2023-11-18T09:19:07;99888.00;;;-0.68;100.00
71573;BME280;59408;51.032;9.410;2023-11-18T09:21:34;99884.72;;;-0.53;100.00
71573;BME280;59408;51.032;9.410;2023-11-18T09:24:01;99881.97;;;-0.42;100.00
71573;BME280;59408;51.032;9.410;2023-11-18T09:26:27;99887.72;;;-0.33;100.00
71573;BME280;59408;51.032;9.410;2023-11-18T09:28:54;99891.22;;;-0.33;100.00
71573;BME280;59408;51.032;9.410;2023-11-18T09:31:21;99884.31;;;-0.29;100.00
71573;BME280;59408;51.032;9.410;2023-11-18T09:33:49;99880.69;;;-0.17;100.00
71573;BME280;59408;51.032;9.410;2023-11-18T09:36:16;99876.91;;;0.00;100.00
71573;BME280;59408;51.032;9.410;2023-11-18T09:38:43;99875.53;;;0.20;100.00
71573;BME280;59408;51.032;9.410;2023-11-18T09:41:12;99867.28;;;0.48;100.00
71573;BME280;59408;51.032;9.410;2023-11-18T09:43:40;99869.81;;;0.60;100.00
71573;BME280;59408;51.032;9.410;2023-11-18T09:46:08;99873.19;;;0.72;100.00
71573;BME280;59408;51.032;9.410;2023-11-18T09:48:35;99867.94;;;0.87;100.00
71573;BME280;59408;51.032;9.410;2023-11-18T09:51:04;99855.50;;;1.08;100.00
71573;BME280;59408;51.032;9.410;2023-11-18T09:53:31;99852.09;;;1.17;100.00
71573;BME280;59408;51.032;9.410;2023-11-18T09:56:03;99852.16;;;1.28;100.00
71573;BME280;59408;51.032;9.410;2023-11-18T09:58:37;99858.63;;;1.32;100.00
71573;BME280;59408;51.032;9.410;2023-11-18T10:01:07;99855.47;;;1.40;100.00
71573;BME280;59408;51.032;9.410;2023-11-18T10:03:34;99849.41;;;1.54;100.00
71573;BME280;59408;51.032;9.410;2023-11-18T10:06:06;99851.66;;;1.73;100.00
71573;BME280;59408;51.032;9.410;2023-11-18T10:08:34;99851.47;;;1.94;100.00
71573;BME280;59408;51.032;9.410;2023-11-18T10:11:01;99846.69;;;2.07;100.00
71573;BME280;59408;51.032;9.410;2023-11-18T10:13:27;99840.84;;;2.25;100.00
71573;BME280;59408;51.032;9.410;2023-11-18T10:15:54;99838.19;;;2.35;100.00
71573;BME280;59408;51.032;9.410;2023-11-18T10:18:22;99828.53;;;2.49;100.00
71573;BME280;59408;51.032;9.410;2023-11-18T10:20:49;99822.31;;;2.49;100.00
71573;BME280;59408;51.032;9.410;2023-11-18T10:23:19;99811.03;;;2.52;100.00
71573;BME280;59408;51.032;9.410;2023-11-18T10:25:46;99815.09;;;2.54;100.00
71573;BME280;59408;51.032;9.410;2023-11-18T10:28:21;99805.09;;;2.50;100.00
71573;BME280;59408;51.032;9.410;2023-11-18T10:30:48;99808.06;;;2.58;100.00
71573;BME280;59408;51.032;9.410;2023-11-18T10:33:14;99808.06;;;2.73;100.00
71573;BME280;59408;51.032;9.410;2023-11-18T10:35:48;99807.28;;;2.68;100.00
71573;BME280;59408;51.032;9.410;2023-11-18T10:38:15;99797.59;;;2.87;100.00
71573;BME280;59408;51.032;9.410;2023-11-18T10:40:43;99795.44;;;2.89;100.00
71573;BME280;59408;51.032;9.410;2023-11-18T10:43:10;99798.13;;;2.84;100.00
71573;BME280;59408;51.032;9.410;2023-11-18T10:45:37;99806.22;;;2.89;100.00
71573;BME280;59408;51.032;9.410;2023-11-18T10:48:05;99801.09;;;2.93;100.00
71573;BME280;59408;51.032;9.410;2023-11-18T10:50:31;99804.34;;;3.00;100.00
71573;BME280;59408;51.032;9.410;2023-11-18T10:53:00;99798.66;;;2.86;100.00
71573;BME280;59408;51.032;9.410;2023-11-18T10:55:35;99808.09;;;2.84;100.00
71573;BME280;59408;51.032;9.410;2023-11-18T10:58:03;99798.66;;;2.86;100.00
71573;BME280;59408;51.032;9.410;2023-11-18T11:00:45;99793.00;;;2.88;100.00
71573;BME280;59408;51.032;9.410;2023-11-18T11:03:12;99796.53;;;2.88;100.00
71573;BME280;59408;51.032;9.410;2023-11-18T11:05:39;99785.72;;;2.93;100.00
71573;BME280;59408;51.032;9.410;2023-11-18T11:08:06;99784.38;;;3.01;100.00
71573;BME280;59408;51.032;9.410;2023-11-18T11:10:33;99778.72;;;3.07;100.00
71573;BME280;59408;51.032;9.410;2023-11-18T11:13:00;99783.56;;;3.21;100.00
71573;BME280;59408;51.032;9.410;2023-11-18T11:15:29;99770.63;;;3.23;100.00
71573;BME280;59408;51.032;9.410;2023-11-18T11:18:05;99761.97;;;3.31;100.00
71573;BME280;59408;51.032;9.410;2023-11-18T11:20:37;99760.91;;;3.37;100.00
71573;BME280;59408;51.032;9.410;2023-11-18T11:23:13;99770.84;;;3.41;100.00
71573;BME280;59408;51.032;9.410;2023-11-18T11:25:53;99763.28;;;3.43;100.00
71573;BME280;59408;51.032;9.410;2023-11-18T11:28:23;99761.38;;;3.49;100.00
71573;BME280;59408;51.032;9.410;2023-11-18T11:30:55;99760.31;;;3.55;100.00
71573;BME280;59408;51.032;9.410;2023-11-18T11:33:28;99758.66;;;3.64;100.00
71573;BME280;59408;51.032;9.410;2023-11-18T11:35:56;99738.91;;;3.74;100.00
71573;BME280;59408;51.032;9.410;2023-11-18T11:38:23;99738.59;;;3.85;100.00
71573;BME280;59408;51.032;9.410;2023-11-18T11:40:51;99728.84;;;3.89;100.00
71573;BME280;59408;51.032;9.410;2023-11-18T11:43:18;99706.41;;;3.99;100.00
71573;BME280;59408;51.032;9.410;2023-11-18T11:45:44;99706.34;;;4.09;100.00
71573;BME280;59408;51.032;9.410;2023-11-18T11:48:13;99689.28;;;4.14;100.00
71573;BME280;59408;51.032;9.410;2023-11-18T11:51:03;99676.88;;;4.18;100.00
71573;BME280;59408;51.032;9.410;2023-11-18T11:53:35;99667.56;;;4.29;100.00
71573;BME280;59408;51.032;9.410;2023-11-18T11:56:03;99669.16;;;4.35;100.00
71573;BME280;59408;51.032;9.410;2023-11-18T11:58:33;99681.72;;;4.50;100.00
71573;BME280;59408;51.032;9.410;2023-11-18T12:01:00;99672.00;;;4.54;100.00
71573;BME280;59408;51.032;9.410;2023-11-18T12:03:31;99676.78;;;4.62;100.00
71573;BME280;59408;51.032;9.410;2023-11-18T12:05:57;99674.22;;;4.76;100.00
71573;BME280;59408;51.032;9.410;2023-11-18T12:08:24;99671.13;;;4.87;100.00
71573;BME280;59408;51.032;9.410;2023-11-18T12:10:51;99664.09;;;4.91;100.00
71573;BME280;59408;51.032;9.410;2023-11-18T12:13:19;99656.00;;;4.91;100.00
71573;BME280;59408;51.032;9.410;2023-11-18T12:15:49;99662.06;;;5.02;100.00
71573;BME280;59408;51.032;9.410;2023-11-18T12:18:16;99660.19;;;5.03;100.00
71573;BME280;59408;51.032;9.410;2023-11-18T12:20:45;99642.97;;;4.93;100.00
71573;BME280;59408;51.032;9.410;2023-11-18T12:23:11;99659.47;;;4.92;100.00
71573;BME280;59408;51.032;9.410;2023-11-18T12:25:38;99650.28;;;4.93;100.00
71573;BME280;59408;51.032;9.410;2023-11-18T12:28:09;99649.78;;;4.86;100.00
71573;BME280;59408;51.032;9.410;2023-11-18T12:30:39;99647.38;;;4.89;100.00
71573;BME280;59408;51.032;9.410;2023-11-18T12:33:06;99647.88;;;4.91;100.00
71573;BME280;59408;51.032;9.410;2023-11-18T12:35:40;99644.38;;;4.86;100.00
71573;BME280;59408;51.032;9.410;2023-11-18T12:38:30;99642.75;;;4.85;100.00
71573;BME280;59408;51.032;9.410;2023-11-18T12:41:08;99638.16;;;4.85;100.00
71573;BME280;59408;51.032;9.410;2023-11-18T12:43:46;99645.53;;;4.80;100.00
71573;BME280;59408;51.032;9.410;2023-11-18T12:46:32;99647.25;;;4.71;100.00
71573;BME280;59408;51.032;9.410;2023-11-18T12:49:07;99643.75;;;4.65;100.00
71573;BME280;59408;51.032;9.410;2023-11-18T12:51:35;99643.28;;;4.63;100.00
71573;BME280;59408;51.032;9.410;2023-11-18T12:54:04;99642.47;;;4.62;100.00
71573;BME280;59408;51.032;9.410;2023-11-18T12:56:30;99636.00;;;4.58;100.00